Time;durP1;ratioP1;P1;durP2;ratioP2;P2;SDS_P1;SDS_P2;PMS_P1;PMS_P2;Temp;Humidity;BMP_temperature;BMP_pressure;BME280_temperature;BME280_humidity;BME280_pressure;Samples;Min_cycle;Max_cycle;Signal;HPM_P1;HPM_P2
2022/11/23 00:01:26;;;;;;;5.45;1.95;;;5.80;99.90;;;;;;477212;249;27511;-66
2022/11/23 00:03:27;;;;;;;3.45;2.22;;;5.90;99.90;;;;;;477227;249;27966;-65
2022/11/23 00:05:29;;;;;;;4.50;2.15;;;5.90;99.90;;;;;;477276;249;28094;-68
2022/11/23 00:07:30;;;;;;;4.37;2.60;;;5.90;99.90;;;;;;477258;249;27505;-67
2022/11/23 00:09:31;;;;;;;3.95;2.05;;;5.90;99.90;;;;;;477233;249;27566;-68
2022/11/23 00:11:32;;;;;;;6.95;2.20;;;5.90;99.90;;;;;;477249;249;27492;-65
2022/11/23 00:13:34;;;;;;;2.92;2.12;;;5.90;99.90;;;;;;477279;249;27488;-66
2022/11/23 00:15:35;;;;;;;3.00;1.92;;;5.90;99.90;;;;;;477248;249;27544;-67
2022/11/23 00:17:36;;;;;;;3.87;2.10;;;5.90;99.90;;;;;;477240;249;27584;-65
2022/11/23 00:19:38;;;;;;;4.57;2.50;;;5.90;99.90;;;;;;477264;249;27625;-65
2022/11/23 00:21:39;;;;;;;3.67;2.17;;;5.90;99.90;;;;;;477264;249;27973;-65
2022/11/23 00:23:40;;;;;;;7.75;2.55;;;5.90;99.90;;;;;;477280;249;27959;-65
2022/11/23 00:25:41;;;;;;;6.25;3.10;;;5.90;99.90;;;;;;477268;249;27576;-68
2022/11/23 00:27:43;;;;;;;5.57;2.22;;;5.90;99.90;;;;;;477270;249;27493;-67
2022/11/23 00:29:44;;;;;;;5.05;1.90;;;6.00;99.90;;;;;;477264;249;27975;-66
2022/11/23 00:31:45;;;;;;;4.62;1.85;;;6.00;99.90;;;;;;477294;249;28073;-68
2022/11/23 00:33:47;;;;;;;2.17;1.98;;;6.00;99.90;;;;;;477267;249;27510;-66
2022/11/23 00:35:48;;;;;;;4.43;2.20;;;6.00;99.90;;;;;;477230;249;27552;-66
2022/11/23 00:37:49;;;;;;;6.82;2.25;;;6.00;99.90;;;;;;477250;249;27495;-65
2022/11/23 00:39:50;;;;;;;7.05;2.47;;;6.00;99.90;;;;;;477220;249;27632;-65
2022/11/23 00:41:52;;;;;;;4.10;2.47;;;6.00;99.90;;;;;;477289;249;27579;-68
2022/11/23 00:43:53;;;;;;;6.40;2.20;;;6.00;99.90;;;;;;477237;249;27509;-65
2022/11/23 00:45:54;;;;;;;4.05;2.00;;;6.00;99.90;;;;;;477269;249;27540;-66
2022/11/23 00:47:55;;;;;;;5.03;2.17;;;6.00;99.90;;;;;;477249;249;27954;-65
2022/11/23 00:49:57;;;;;;;5.68;2.55;;;6.00;99.90;;;;;;477251;249;27970;-66
2022/11/23 00:51:58;;;;;;;4.85;1.90;;;6.00;99.90;;;;;;477287;249;27601;-68
2022/11/23 00:53:59;;;;;;;4.40;2.20;;;6.00;99.90;;;;;;477214;249;27608;-66
2022/11/23 00:56:00;;;;;;;4.03;1.90;;;6.00;99.90;;;;;;477257;249;27545;-66
2022/11/23 00:58:02;;;;;;;5.05;1.80;;;6.00;99.90;;;;;;477216;249;27554;-65
2022/11/23 01:00:03;;;;;;;6.78;2.62;;;6.00;99.90;;;;;;477237;249;27552;-66
2022/11/23 01:02:04;;;;;;;2.15;1.95;;;6.00;99.90;;;;;;477286;249;27540;-68
2022/11/23 01:04:05;;;;;;;2.28;1.95;;;6.00;99.90;;;;;;477249;249;27570;-65
2022/11/23 01:06:07;;;;;;;2.92;1.70;;;6.00;99.90;;;;;;477238;249;28004;-66
2022/11/23 01:08:08;;;;;;;4.97;1.90;;;6.00;99.90;;;;;;477244;249;27969;-64
2022/11/23 01:10:09;;;;;;;4.03;1.80;;;6.00;99.90;;;;;;477211;249;27979;-65
2022/11/23 01:12:10;;;;;;;4.37;2.20;;;6.00;99.90;;;;;;477254;249;27634;-68
2022/11/23 01:14:12;;;;;;;8.73;2.28;;;6.00;99.90;;;;;;477257;249;27527;-65
2022/11/23 01:16:13;;;;;;;4.90;2.03;;;6.00;99.90;;;;;;477196;249;27642;-66
2022/11/23 01:18:14;;;;;;;3.45;2.00;;;6.00;99.90;;;;;;477213;249;27508;-66
2022/11/23 01:20:15;;;;;;;6.80;2.50;;;6.10;99.90;;;;;;477254;249;27503;-65
2022/11/23 01:22:19;;;;;;;5.40;2.15;;;6.10;99.90;;;;;;477265;249;27543;-69
2022/11/23 01:24:18;;;;;;;5.40;2.42;;;6.10;99.90;;;;;;477071;249;28040;-65
2022/11/23 01:26:19;;;;;;;3.42;1.80;;;6.10;99.90;;;;;;477210;249;28070;-66
2022/11/23 01:28:20;;;;;;;2.45;1.80;;;6.10;99.90;;;;;;477223;249;28744;-65
2022/11/23 01:30:22;;;;;;;4.75;2.10;;;6.10;99.90;;;;;;477251;249;27653;-65
2022/11/23 01:32:23;;;;;;;4.15;2.12;;;6.10;99.90;;;;;;477240;249;27556;-67
2022/11/23 01:34:24;;;;;;;6.35;2.40;;;6.10;99.90;;;;;;477244;249;27496;-65
2022/11/23 01:36:25;;;;;;;5.37;2.00;;;6.10;99.90;;;;;;477236;249;27655;-65
2022/11/23 01:38:27;;;;;;;6.35;2.40;;;6.10;99.90;;;;;;477170;249;27508;-65
2022/11/23 01:40:28;;;;;;;4.40;2.05;;;6.20;99.90;;;;;;477268;249;27585;-65
2022/11/23 01:42:29;;;;;;;4.00;1.70;;;6.10;99.90;;;;;;477262;249;27996;-68
2022/11/23 01:44:30;;;;;;;9.20;2.62;;;6.10;99.90;;;;;;477252;249;27949;-65
2022/11/23 01:46:32;;;;;;;8.40;2.37;;;6.10;99.90;;;;;;477220;249;28011;-65
2022/11/23 01:48:33;;;;;;;4.68;2.15;;;6.10;99.90;;;;;;477221;249;27581;-65
2022/11/23 01:50:34;;;;;;;6.53;2.00;;;6.10;99.90;;;;;;477272;249;27531;-66
2022/11/23 01:52:35;;;;;;;5.45;1.92;;;6.20;99.90;;;;;;477248;249;27643;-67
2022/11/23 01:54:37;;;;;;;10.35;2.30;;;6.10;99.90;;;;;;477226;249;27597;-65
2022/11/23 01:56:38;;;;;;;3.87;2.03;;;6.10;99.90;;;;;;477212;249;27656;-65
2022/11/23 01:58:39;;;;;;;6.20;2.70;;;6.20;99.90;;;;;;477217;249;27972;-65
2022/11/23 02:00:41;;;;;;;4.55;2.80;;;6.20;99.90;;;;;;477226;249;27958;-64
2022/11/23 02:02:42;;;;;;;7.53;2.42;;;6.20;99.90;;;;;;477250;249;27997;-67
2022/11/23 02:04:43;;;;;;;7.87;2.47;;;6.20;99.90;;;;;;477233;249;27644;-66
2022/11/23 02:06:44;;;;;;;6.22;2.20;;;6.20;99.90;;;;;;477228;249;27528;-67
2022/11/23 02:08:46;;;;;;;4.87;2.12;;;6.10;99.90;;;;;;477215;249;27525;-64
2022/11/23 02:10:47;;;;;;;4.50;2.53;;;6.10;99.90;;;;;;477264;249;27591;-66
2022/11/23 02:12:48;;;;;;;4.30;2.00;;;6.10;99.90;;;;;;477256;249;27552;-66
2022/11/23 02:14:49;;;;;;;7.97;2.50;;;6.10;99.90;;;;;;477238;249;27920;-64
2022/11/23 02:16:51;;;;;;;3.95;2.22;;;6.10;99.90;;;;;;477239;249;27549;-64
2022/11/23 02:18:52;;;;;;;4.47;2.50;;;6.10;99.90;;;;;;477265;249;28559;-67
2022/11/23 02:20:53;;;;;;;7.75;2.60;;;6.10;99.90;;;;;;477232;249;28079;-65
2022/11/23 02:22:54;;;;;;;8.57;2.22;;;6.10;99.90;;;;;;477260;249;28032;-65
2022/11/23 02:24:56;;;;;;;7.40;2.40;;;6.10;99.90;;;;;;477211;249;27504;-66
2022/11/23 02:26:57;;;;;;;4.25;2.40;;;6.10;99.90;;;;;;477216;249;27669;-67
2022/11/23 02:28:59;;;;;;;7.18;2.55;;;6.10;99.90;;;;;;477254;249;27560;-68
2022/11/23 02:31:01;;;;;;;2.70;1.98;;;6.10;99.90;;;;;;477255;249;27537;-65
2022/11/23 02:33:02;;;;;;;7.25;2.40;;;6.10;99.90;;;;;;477230;249;27643;-64
2022/11/23 02:35:03;;;;;;;3.65;2.03;;;6.10;99.90;;;;;;477221;249;28104;-66
2022/11/23 02:37:04;;;;;;;8.30;1.98;;;6.10;99.90;;;;;;477194;249;28733;-66
2022/11/23 02:39:05;;;;;;;4.28;2.33;;;6.10;99.90;;;;;;477241;249;27543;-66
2022/11/23 02:41:07;;;;;;;5.70;2.15;;;6.10;99.90;;;;;;477226;249;27532;-68
2022/11/23 02:43:08;;;;;;;6.32;2.30;;;6.10;99.90;;;;;;477223;249;27543;-66
2022/11/23 02:45:09;;;;;;;4.80;2.20;;;6.10;99.90;;;;;;477215;249;27664;-64
2022/11/23 02:47:11;;;;;;;5.55;2.20;;;6.10;99.90;;;;;;477261;249;27552;-69
2022/11/23 02:49:12;;;;;;;4.75;2.35;;;6.10;99.90;;;;;;477222;249;28016;-64
2022/11/23 02:51:13;;;;;;;4.47;2.10;;;6.10;99.90;;;;;;477194;249;28137;-64
2022/11/23 02:53:14;;;;;;;6.10;1.70;;;6.10;99.90;;;;;;477193;249;27513;-66
2022/11/23 02:55:16;;;;;;;5.15;1.80;;;6.10;99.90;;;;;;477232;249;27508;-66
2022/11/23 02:57:17;;;;;;;3.78;1.98;;;6.10;99.90;;;;;;477218;249;27541;-67
2022/11/23 02:59:18;;;;;;;7.05;2.10;;;6.10;99.90;;;;;;477202;249;27508;-64
2022/11/23 03:01:19;;;;;;;3.83;2.42;;;6.10;99.90;;;;;;477204;249;27666;-67
2022/11/23 03:03:21;;;;;;;4.68;2.10;;;6.00;99.90;;;;;;477223;249;27511;-66
2022/11/23 03:05:22;;;;;;;4.62;2.30;;;6.00;99.90;;;;;;477242;249;28160;-64
2022/11/23 03:07:23;;;;;;;3.75;2.17;;;6.00;99.90;;;;;;477131;249;27992;-66
2022/11/23 03:09:25;;;;;;;3.72;2.22;;;6.00;99.90;;;;;;477181;249;27955;-64
2022/11/23 03:11:26;;;;;;;3.60;2.12;;;6.00;99.90;;;;;;477249;249;27646;-65
2022/11/23 03:13:27;;;;;;;4.47;2.08;;;6.00;99.90;;;;;;477228;249;27560;-64
2022/11/23 03:15:28;;;;;;;4.78;2.20;;;6.00;99.90;;;;;;477285;249;27581;-65
2022/11/23 03:17:29;;;;;;;5.75;2.30;;;6.00;99.90;;;;;;477241;249;27526;-64
2022/11/23 03:19:31;;;;;;;2.22;1.83;;;5.90;99.90;;;;;;477250;249;27493;-64
2022/11/23 03:21:32;;;;;;;4.85;2.30;;;5.90;99.90;;;;;;477218;249;27535;-65
2022/11/23 03:23:33;;;;;;;4.75;2.25;;;5.90;99.90;;;;;;477239;249;28056;-64
2022/11/23 03:25:34;;;;;;;3.40;1.83;;;5.90;99.90;;;;;;477239;249;27957;-64
2022/11/23 03:27:36;;;;;;;2.12;1.92;;;5.90;99.90;;;;;;477220;249;28093;-67
2022/11/23 03:29:37;;;;;;;4.80;2.08;;;5.90;99.90;;;;;;477222;249;27512;-64
2022/11/23 03:31:38;;;;;;;4.43;2.50;;;5.90;99.90;;;;;;477211;249;27508;-64
2022/11/23 03:33:40;;;;;;;5.85;1.80;;;5.90;99.90;;;;;;477257;249;27570;-67
2022/11/23 03:35:41;;;;;;;4.85;1.85;;;5.80;99.90;;;;;;477230;249;27596;-66
2022/11/23 03:37:42;;;;;;;3.22;2.10;;;5.80;99.90;;;;;;477226;249;27582;-64
2022/11/23 03:39:43;;;;;;;4.20;1.75;;;5.80;99.90;;;;;;477228;249;27505;-66
2022/11/23 03:41:45;;;;;;;6.35;2.25;;;5.80;99.90;;;;;;477200;249;28026;-65
2022/11/23 03:43:46;;;;;;;5.85;2.22;;;5.80;99.90;;;;;;477228;249;28027;-67
2022/11/23 03:45:47;;;;;;;4.50;2.12;;;5.80;99.90;;;;;;477224;249;28060;-64
2022/11/23 03:47:48;;;;;;;3.40;1.90;;;5.80;99.90;;;;;;477221;249;27628;-64
2022/11/23 03:49:50;;;;;;;5.93;1.83;;;5.80;99.90;;;;;;477235;249;27504;-65
2022/11/23 03:51:51;;;;;;;1.83;1.58;;;5.80;99.90;;;;;;477240;249;27529;-65
2022/11/23 03:53:52;;;;;;;1.65;1.42;;;5.80;99.90;;;;;;477263;249;27554;-69
2022/11/23 03:55:56;;;;;;;5.18;1.92;;;5.80;99.90;;;;;;477237;249;27536;-66
2022/11/23 03:57:58;;;;;;;2.85;2.03;;;5.80;99.90;;;;;;477036;249;27532;-64
2022/11/23 03:59:56;;;;;;;3.15;1.80;;;5.80;99.90;;;;;;476972;249;27502;-66
2022/11/23 04:01:57;;;;;;;3.15;1.58;;;5.80;99.90;;;;;;477183;249;28068;-66
2022/11/23 04:03:58;;;;;;;4.10;1.85;;;5.80;99.90;;;;;;477264;249;28080;-67
2022/11/23 04:06:00;;;;;;;4.50;1.90;;;5.80;99.90;;;;;;477273;249;27532;-64
2022/11/23 04:08:01;;;;;;;4.35;1.90;;;5.80;99.90;;;;;;477234;249;27564;-67
2022/11/23 04:10:02;;;;;;;2.87;1.85;;;5.80;99.90;;;;;;477220;249;27629;-64
2022/11/23 04:12:03;;;;;;;3.67;1.75;;;5.80;99.90;;;;;;477209;249;27547;-64
2022/11/23 04:14:05;;;;;;;3.60;2.00;;;5.80;99.90;;;;;;477248;249;27573;-68
2022/11/23 04:16:06;;;;;;;3.05;1.70;;;5.80;99.90;;;;;;477247;249;27512;-66
2022/11/23 04:18:07;;;;;;;5.97;1.62;;;5.80;99.90;;;;;;477223;249;27566;-67
2022/11/23 04:20:08;;;;;;;5.78;2.03;;;5.80;99.90;;;;;;477224;249;28036;-65
2022/11/23 04:22:10;;;;;;;2.50;1.83;;;5.80;99.90;;;;;;477250;249;27984;-66
2022/11/23 04:24:11;;;;;;;3.65;2.00;;;5.80;99.90;;;;;;477279;249;28120;-68
2022/11/23 04:26:12;;;;;;;3.72;1.92;;;5.80;99.90;;;;;;477256;249;27576;-66
2022/11/23 04:28:13;;;;;;;3.35;1.73;;;5.80;99.90;;;;;;477240;249;27671;-67
2022/11/23 04:30:15;;;;;;;2.95;1.70;;;5.80;99.90;;;;;;477239;249;27631;-66
2022/11/23 04:32:16;;;;;;;5.15;2.20;;;5.80;99.90;;;;;;477282;249;27560;-66
2022/11/23 04:34:17;;;;;;;2.97;2.33;;;5.80;99.90;;;;;;477263;249;27528;-68
2022/11/23 04:36:18;;;;;;;5.65;2.35;;;5.80;99.90;;;;;;477191;249;27651;-64
2022/11/23 04:38:20;;;;;;;4.85;2.25;;;5.80;99.90;;;;;;476113;249;28466;-66
2022/11/23 04:40:21;;;;;;;3.47;1.90;;;5.80;99.90;;;;;;476005;249;27439;-66
2022/11/23 04:42:22;;;;;;;4.55;2.12;;;5.70;99.90;;;;;;476856;249;27551;-64
2022/11/23 04:44:23;;;;;;;2.95;2.20;;;5.70;99.90;;;;;;477012;249;27651;-66
2022/11/23 04:46:25;;;;;;;6.85;2.75;;;5.70;99.90;;;;;;477184;249;27513;-63
2022/11/23 04:48:26;;;;;;;2.78;2.35;;;5.70;99.90;;;;;;477224;249;27537;-66
2022/11/23 04:50:27;;;;;;;6.45;2.28;;;5.80;99.90;;;;;;477257;249;27903;-67
2022/11/23 04:52:28;;;;;;;2.67;1.60;;;5.70;99.90;;;;;;477254;249;27939;-67
2022/11/23 04:54:30;;;;;;;2.40;1.70;;;5.80;99.90;;;;;;477258;249;28029;-67
2022/11/23 04:56:31;;;;;;;1.73;1.60;;;5.80;99.90;;;;;;477213;249;27493;-66
2022/11/23 04:58:32;;;;;;;4.82;1.80;;;5.70;99.90;;;;;;477217;249;27555;-66
2022/11/23 05:00:33;;;;;;;4.03;2.17;;;5.70;99.90;;;;;;477255;249;27530;-64
2022/11/23 05:02:35;;;;;;;3.47;1.70;;;5.70;99.90;;;;;;477275;249;27503;-66
2022/11/23 05:04:36;;;;;;;3.47;1.85;;;5.70;99.90;;;;;;477240;249;27576;-67
2022/11/23 05:06:37;;;;;;;4.70;1.65;;;5.70;99.90;;;;;;477233;249;27483;-66
2022/11/23 05:08:38;;;;;;;2.45;1.90;;;5.70;99.90;;;;;;477217;249;27569;-66
2022/11/23 05:10:40;;;;;;;3.72;1.80;;;5.70;99.90;;;;;;477257;249;28225;-70
2022/11/23 05:12:41;;;;;;;5.12;2.00;;;5.80;99.90;;;;;;477246;249;27956;-66
2022/11/23 05:14:42;;;;;;;5.20;1.90;;;5.80;99.90;;;;;;477241;249;27538;-67
2022/11/23 05:16:44;;;;;;;3.80;1.80;;;5.80;99.90;;;;;;477241;249;27603;-64
2022/11/23 05:18:45;;;;;;;6.47;1.70;;;5.80;99.90;;;;;;477213;249;27662;-65
2022/11/23 05:20:46;;;;;;;2.35;1.87;;;5.80;99.90;;;;;;477259;249;27652;-66
2022/11/23 05:22:47;;;;;;;4.30;1.90;;;5.80;99.90;;;;;;477250;249;27576;-66
2022/11/23 05:24:49;;;;;;;3.72;1.92;;;5.80;99.90;;;;;;477253;249;27529;-67
2022/11/23 05:26:50;;;;;;;6.78;2.12;;;5.80;99.90;;;;;;477275;249;27491;-66
2022/11/23 05:28:51;;;;;;;5.25;2.12;;;5.80;99.90;;;;;;477263;249;27985;-64
2022/11/23 05:30:53;;;;;;;5.78;2.30;;;5.80;99.90;;;;;;477284;249;28124;-69
2022/11/23 05:32:54;;;;;;;7.05;2.30;;;5.80;99.90;;;;;;477227;249;27512;-66
2022/11/23 05:34:55;;;;;;;6.15;2.72;;;5.80;99.90;;;;;;477239;249;27539;-67
2022/11/23 05:36:56;;;;;;;5.25;2.00;;;5.80;99.90;;;;;;477237;249;27498;-66
2022/11/23 05:38:58;;;;;;;6.75;2.28;;;5.80;99.90;;;;;;477207;249;27530;-66
2022/11/23 05:41:00;;;;;;;3.53;2.20;;;5.80;99.90;;;;;;477255;249;27533;-69
2022/11/23 05:43:01;;;;;;;3.00;2.35;;;5.80;99.90;;;;;;477234;249;27549;-67
2022/11/23 05:45:02;;;;;;;4.37;2.35;;;5.80;99.90;;;;;;477239;249;27624;-64
2022/11/23 05:47:04;;;;;;;5.12;2.50;;;5.80;99.90;;;;;;477198;249;28070;-66
2022/11/23 05:49:05;;;;;;;4.93;2.10;;;5.80;99.90;;;;;;477265;249;28037;-68
2022/11/23 05:51:06;;;;;;;4.03;2.40;;;5.70;99.90;;;;;;477245;249;27968;-64
2022/11/23 05:53:07;;;;;;;8.75;2.65;;;5.70;99.90;;;;;;477208;249;27541;-67
2022/11/23 05:55:09;;;;;;;5.65;2.70;;;5.60;99.90;;;;;;477233;249;27508;-64
2022/11/23 05:57:10;;;;;;;4.60;2.47;;;5.60;99.90;;;;;;477211;249;27518;-65
2022/11/23 05:59:13;;;;;;;8.07;2.45;;;5.50;99.90;;;;;;477245;249;27539;-67
2022/11/23 06:01:14;;;;;;;5.70;2.25;;;5.50;99.90;;;;;;477213;249;27573;-64
2022/11/23 06:03:15;;;;;;;7.60;2.50;;;5.40;99.90;;;;;;477215;249;27542;-67
2022/11/23 06:05:16;;;;;;;5.12;2.30;;;5.30;99.90;;;;;;477238;249;28049;-65
2022/11/23 06:07:18;;;;;;;2.40;2.20;;;5.30;99.90;;;;;;477232;249;27996;-65
2022/11/23 06:09:19;;;;;;;3.28;2.42;;;5.30;99.90;;;;;;477204;249;28018;-64
2022/11/23 06:11:20;;;;;;;3.95;2.50;;;5.20;99.90;;;;;;477202;249;28002;-65
2022/11/23 06:13:21;;;;;;;5.95;2.08;;;5.20;99.90;;;;;;477235;249;27559;-70
2022/11/23 06:15:23;;;;;;;5.47;2.45;;;5.20;99.90;;;;;;477219;249;27559;-66
2022/11/23 06:17:24;;;;;;;7.15;3.08;;;5.10;99.90;;;;;;477223;249;27537;-64
2022/11/23 06:19:25;;;;;;;2.90;2.33;;;5.10;99.90;;;;;;477204;249;27507;-64
2022/11/23 06:21:26;;;;;;;3.40;2.92;;;5.10;99.90;;;;;;477201;249;27555;-64
2022/11/23 06:23:28;;;;;;;4.25;2.33;;;5.10;99.90;;;;;;477239;249;27690;-68
2022/11/23 06:25:29;;;;;;;3.65;3.05;;;5.10;99.90;;;;;;477224;249;27503;-64
2022/11/23 06:27:30;;;;;;;7.55;2.78;;;5.00;99.90;;;;;;477215;249;27648;-65
2022/11/23 06:29:31;;;;;;;4.95;2.35;;;5.00;99.90;;;;;;477219;249;27501;-64
2022/11/23 06:31:33;;;;;;;5.70;2.60;;;4.90;99.90;;;;;;477199;249;28046;-64
2022/11/23 06:33:34;;;;;;;2.55;2.30;;;4.90;99.90;;;;;;477252;249;28123;-68
2022/11/23 06:35:35;;;;;;;3.62;2.20;;;4.90;99.90;;;;;;477204;247;27944;-64
2022/11/23 06:37:36;;;;;;;7.72;2.55;;;4.80;99.90;;;;;;477221;249;29085;-65
2022/11/23 06:39:39;;;;;;;4.45;2.83;;;4.80;99.90;;;;;;477193;249;27506;-64
2022/11/23 06:41:39;;;;;;;3.42;2.08;;;4.80;99.90;;;;;;477179;249;27556;-64
2022/11/23 06:43:41;;;;;;;3.22;2.65;;;4.80;99.90;;;;;;477239;249;27570;-67
2022/11/23 06:45:43;;;;;;;2.37;1.80;;;4.80;99.90;;;;;;477241;249;27547;-65
2022/11/23 06:47:44;;;;;;;2.97;2.37;;;4.80;99.90;;;;;;477226;249;27627;-63
2022/11/23 06:49:45;;;;;;;2.60;2.40;;;4.80;99.90;;;;;;477222;249;27537;-65
2022/11/23 06:51:46;;;;;;;4.82;2.45;;;4.90;99.90;;;;;;477236;249;28015;-67
2022/11/23 06:53:48;;;;;;;5.10;2.50;;;4.90;99.90;;;;;;477214;247;27618;-64
2022/11/23 06:55:49;;;;;;;3.10;2.15;;;4.90;99.90;;;;;;477226;249;27553;-64
2022/11/23 06:57:50;;;;;;;3.17;2.37;;;4.90;99.90;;;;;;477205;249;27504;-64
2022/11/23 06:59:51;;;;;;;2.87;2.03;;;4.90;99.90;;;;;;477192;249;27671;-64
2022/11/23 07:01:53;;;;;;;4.05;2.42;;;4.90;99.90;;;;;;477247;249;27545;-67
2022/11/23 07:03:54;;;;;;;3.85;2.30;;;4.90;99.90;;;;;;477245;249;27492;-64
2022/11/23 07:05:55;;;;;;;2.97;2.72;;;4.90;99.90;;;;;;477240;249;28064;-64
2022/11/23 07:07:56;;;;;;;2.75;2.25;;;4.90;99.90;;;;;;477241;249;28009;-64
2022/11/23 07:09:58;;;;;;;2.80;2.60;;;4.80;99.90;;;;;;477200;249;29081;-64
2022/11/23 07:11:59;;;;;;;6.72;2.58;;;4.70;99.90;;;;;;477226;249;29191;-67
2022/11/23 07:14:00;;;;;;;2.90;2.10;;;4.70;99.90;;;;;;477223;249;27498;-66
2022/11/23 07:16:01;;;;;;;2.80;2.03;;;4.70;99.90;;;;;;477228;249;27547;-64
2022/11/23 07:18:03;;;;;;;4.53;2.30;;;4.70;99.90;;;;;;477208;249;27540;-64
2022/11/23 07:20:04;;;;;;;2.45;2.25;;;4.80;99.90;;;;;;477195;249;27526;-64
2022/11/23 07:22:05;;;;;;;2.05;1.85;;;4.70;99.90;;;;;;477230;249;27642;-67
2022/11/23 07:24:07;;;;;;;2.30;1.90;;;4.70;99.90;;;;;;477210;249;27611;-64
2022/11/23 07:26:08;;;;;;;8.95;2.40;;;4.80;99.90;;;;;;477175;249;27568;-64
2022/11/23 07:28:09;;;;;;;2.45;1.70;;;4.70;99.90;;;;;;477200;249;29395;-64
2022/11/23 07:30:10;;;;;;;5.47;2.30;;;4.80;99.90;;;;;;477247;249;27970;-64
2022/11/23 07:32:13;;;;;;;2.58;1.73;;;4.70;99.90;;;;;;477226;249;29091;-65
2022/11/23 07:34:13;;;;;;;2.45;2.25;;;4.70;99.90;;;;;;477107;249;27991;-64
2022/11/23 07:36:14;;;;;;;4.40;2.30;;;4.70;99.90;;;;;;477204;249;27609;-65
2022/11/23 07:38:15;;;;;;;5.78;2.00;;;4.70;99.90;;;;;;477211;249;27644;-64
2022/11/23 07:40:17;;;;;;;2.35;2.15;;;4.70;99.90;;;;;;477247;249;27509;-64
2022/11/23 07:42:18;;;;;;;4.53;2.70;;;4.70;99.90;;;;;;477244;249;27537;-65
2022/11/23 07:44:19;;;;;;;3.80;2.35;;;4.70;99.90;;;;;;477219;249;27572;-64
2022/11/23 07:46:20;;;;;;;5.40;2.50;;;4.70;99.90;;;;;;477215;249;27541;-64
2022/11/23 07:48:22;;;;;;;5.85;2.50;;;4.70;99.90;;;;;;477237;249;27520;-67
2022/11/23 07:50:23;;;;;;;4.07;2.30;;;4.70;99.90;;;;;;477246;249;27559;-64
2022/11/23 07:52:24;;;;;;;4.93;2.58;;;4.70;99.90;;;;;;477214;249;27536;-66
2022/11/23 07:54:25;;;;;;;2.20;2.10;;;4.60;99.90;;;;;;477217;249;27631;-64
2022/11/23 07:56:27;;;;;;;5.03;2.00;;;4.70;99.90;;;;;;477217;249;28088;-65
2022/11/23 07:58:28;;;;;;;3.30;2.10;;;4.70;99.90;;;;;;477253;249;28192;-67
2022/11/23 08:00:29;;;;;;;3.92;2.22;;;4.70;99.90;;;;;;477229;249;29053;-64
2022/11/23 08:02:30;;;;;;;5.28;2.40;;;4.70;99.90;;;;;;477243;249;27686;-65
2022/11/23 08:04:32;;;;;;;5.60;2.00;;;4.70;99.90;;;;;;477233;249;27493;-65
2022/11/23 08:06:33;;;;;;;3.00;2.25;;;4.70;99.90;;;;;;477195;249;27574;-64
2022/11/23 08:08:35;;;;;;;4.65;2.42;;;4.80;99.90;;;;;;477256;249;27592;-65
2022/11/23 08:10:35;;;;;;;2.67;1.80;;;4.80;99.90;;;;;;477230;249;27596;-64
2022/11/23 08:12:37;;;;;;;4.05;2.05;;;4.80;99.90;;;;;;477263;249;27538;-65
2022/11/23 08:14:38;;;;;;;3.83;2.35;;;4.80;99.90;;;;;;477247;249;27525;-64
2022/11/23 08:16:39;;;;;;;8.30;2.60;;;4.80;99.90;;;;;;477241;249;27623;-64
2022/11/23 08:18:40;;;;;;;4.43;2.17;;;4.90;99.90;;;;;;477230;249;27880;-67
2022/11/23 08:20:42;;;;;;;3.83;2.35;;;4.90;99.90;;;;;;477239;249;27509;-64
2022/11/23 08:22:43;;;;;;;12.18;2.60;;;4.90;99.90;;;;;;477235;249;27976;-67
2022/11/23 08:24:44;;;;;;;3.97;2.05;;;5.00;99.90;;;;;;477234;249;27960;-64
2022/11/23 08:26:45;;;;;;;3.87;2.15;;;5.00;99.90;;;;;;477242;249;28018;-64
2022/11/23 08:28:47;;;;;;;3.30;2.00;;;5.00;99.90;;;;;;477239;249;29230;-64
2022/11/23 08:30:48;;;;;;;4.15;1.87;;;5.00;99.90;;;;;;477263;249;27584;-64
2022/11/23 08:32:49;;;;;;;4.80;2.40;;;5.00;99.90;;;;;;477274;249;27553;-65
2022/11/23 08:34:50;;;;;;;5.68;1.98;;;5.10;99.90;;;;;;477268;249;27504;-64
2022/11/23 08:36:52;;;;;;;3.28;2.10;;;5.10;99.90;;;;;;477231;249;27615;-64
2022/11/23 08:38:53;;;;;;;3.67;1.90;;;5.10;99.90;;;;;;477272;249;27643;-64
2022/11/23 08:40:54;;;;;;;4.78;2.00;;;5.20;99.90;;;;;;477233;249;27504;-64
2022/11/23 08:42:55;;;;;;;2.37;1.92;;;5.20;99.90;;;;;;477225;249;27640;-64
2022/11/23 08:44:58;;;;;;;5.55;2.20;;;5.30;99.90;;;;;;477223;249;27631;-64
2022/11/23 08:46:58;;;;;;;4.93;2.37;;;5.30;99.90;;;;;;477105;249;27547;-64
2022/11/23 08:48:59;;;;;;;5.65;2.17;;;5.40;99.90;;;;;;477260;249;28518;-67
2022/11/23 08:51:01;;;;;;;5.60;2.33;;;5.40;99.90;;;;;;477253;249;27960;-64
2022/11/23 08:53:02;;;;;;;5.03;2.03;;;5.40;99.90;;;;;;477245;249;27612;-67
2022/11/23 08:55:03;;;;;;;3.35;2.25;;;5.40;99.90;;;;;;477196;249;27547;-64
2022/11/23 08:57:04;;;;;;;3.17;2.25;;;5.40;99.90;;;;;;477207;249;27520;-66
2022/11/23 08:59:05;;;;;;;3.42;1.92;;;5.50;99.90;;;;;;477275;249;27624;-67
2022/11/23 09:01:07;;;;;;;5.50;2.00;;;5.50;99.90;;;;;;477242;249;27603;-64
2022/11/23 09:03:08;;;;;;;9.00;2.25;;;5.60;99.90;;;;;;477255;249;27606;-65
2022/11/23 09:05:10;;;;;;;6.70;2.00;;;5.70;99.90;;;;;;477237;249;27569;-64
2022/11/23 09:07:10;;;;;;;4.95;2.35;;;5.70;99.90;;;;;;477213;249;27495;-66
2022/11/23 09:09:12;;;;;;;9.27;2.35;;;5.80;99.90;;;;;;477272;249;27990;-65
2022/11/23 09:11:13;;;;;;;6.70;2.17;;;5.80;99.90;;;;;;477217;249;28030;-66
2022/11/23 09:13:14;;;;;;;3.92;2.42;;;5.80;99.90;;;;;;477208;249;28126;-66
2022/11/23 09:15:15;;;;;;;4.07;2.50;;;5.90;99.90;;;;;;477217;249;27504;-64
2022/11/23 09:17:17;;;;;;;3.58;1.95;;;5.90;99.90;;;;;;477217;249;27526;-64
2022/11/23 09:19:18;;;;;;;3.47;1.48;;;5.90;99.90;;;;;;477244;249;27616;-70
2022/11/23 09:21:20;;;;;;;4.25;1.92;;;5.80;99.90;;;;;;477245;249;27508;-66
2022/11/23 09:23:21;;;;;;;2.90;1.92;;;5.90;99.90;;;;;;477228;249;27559;-67
2022/11/23 09:25:22;;;;;;;3.95;1.65;;;5.90;99.90;;;;;;477209;249;27572;-66
2022/11/23 09:27:23;;;;;;;5.18;2.30;;;5.90;99.90;;;;;;477230;249;27635;-66
2022/11/23 09:29:25;;;;;;;2.30;1.55;;;6.00;99.90;;;;;;473787;249;47865;-68
2022/11/23 09:31:27;;;;;;;2.53;1.60;;;6.00;99.90;;;;;;477220;249;27953;-67
2022/11/23 09:33:27;;;;;;;2.50;1.70;;;6.10;99.90;;;;;;477104;249;27996;-65
2022/11/23 09:35:28;;;;;;;3.78;2.00;;;6.10;99.90;;;;;;477275;249;27520;-64
2022/11/23 09:37:29;;;;;;;5.53;2.17;;;6.10;99.90;;;;;;477243;249;27709;-64
2022/11/23 09:39:31;;;;;;;6.72;2.33;;;6.10;99.90;;;;;;477255;249;27575;-66
2022/11/23 09:41:32;;;;;;;6.35;2.20;;;6.20;99.90;;;;;;477218;249;27621;-64
2022/11/23 09:43:33;;;;;;;3.62;2.10;;;6.10;99.90;;;;;;477224;249;28049;-66
2022/11/23 09:45:34;;;;;;;4.60;1.83;;;6.20;99.90;;;;;;477248;249;28102;-66
2022/11/23 09:47:36;;;;;;;9.18;2.17;;;6.20;99.90;;;;;;477240;249;27603;-67
2022/11/23 09:49:37;;;;;;;2.83;1.80;;;6.20;99.90;;;;;;477225;249;27558;-68
2022/11/23 09:51:38;;;;;;;3.45;1.87;;;6.20;99.90;;;;;;477265;249;27505;-67
2022/11/23 09:53:39;;;;;;;4.45;1.58;;;6.20;99.90;;;;;;477247;249;27544;-67
2022/11/23 09:55:41;;;;;;;7.57;1.95;;;6.20;99.90;;;;;;477294;249;27535;-69
2022/11/23 09:57:42;;;;;;;4.25;1.90;;;6.30;99.90;;;;;;477272;249;27667;-66
2022/11/23 09:59:46;;;;;;;6.32;2.20;;;6.30;99.90;;;;;;477216;249;27539;-66
2022/11/23 10:01:47;;;;;;;7.60;2.67;;;6.30;99.90;;;;;;477241;249;27536;-67
2022/11/23 10:03:48;;;;;;;11.63;2.20;;;6.40;99.90;;;;;;477210;249;27494;-65
2022/11/23 10:05:50;;;;;;;4.57;1.62;;;6.40;99.90;;;;;;477218;249;27528;-66
2022/11/23 10:07:51;;;;;;;8.45;2.00;;;6.40;99.90;;;;;;477257;249;27545;-65
2022/11/23 10:09:52;;;;;;;7.15;2.85;;;6.50;99.90;;;;;;477295;249;27532;-65
2022/11/23 10:11:53;;;;;;;8.15;2.40;;;6.50;99.90;;;;;;477259;249;27637;-67
2022/11/23 10:13:55;;;;;;;3.70;1.90;;;6.60;99.90;;;;;;477254;249;28035;-66
2022/11/23 10:15:56;;;;;;;4.10;1.90;;;6.60;99.90;;;;;;477222;249;28106;-66
2022/11/23 10:17:57;;;;;;;1.95;1.75;;;6.60;99.90;;;;;;477264;249;27572;-69
2022/11/23 10:19:59;;;;;;;10.48;2.30;;;6.70;99.90;;;;;;477238;249;27583;-66
2022/11/23 10:22:00;;;;;;;3.87;1.87;;;6.70;99.90;;;;;;477253;249;27628;-66
2022/11/23 10:24:01;;;;;;;3.17;2.00;;;6.70;99.90;;;;;;477247;249;27608;-67
2022/11/23 10:26:02;;;;;;;2.72;1.92;;;6.70;99.90;;;;;;477266;249;27564;-66
2022/11/23 10:28:04;;;;;;;4.37;1.73;;;6.70;99.90;;;;;;477292;249;27558;-69
2022/11/23 10:30:05;;;;;;;5.65;2.20;;;6.70;99.90;;;;;;477233;249;27941;-66
2022/11/23 10:32:06;;;;;;;7.87;2.40;;;6.70;99.90;;;;;;477212;249;28081;-67
2022/11/23 10:34:07;;;;;;;3.75;2.25;;;6.80;99.90;;;;;;477207;249;27497;-66
2022/11/23 10:36:09;;;;;;;4.12;1.75;;;6.80;99.90;;;;;;477235;249;27532;-67
2022/11/23 10:38:10;;;;;;;2.50;1.85;;;6.80;99.90;;;;;;477216;249;27571;-65
2022/11/23 10:40:11;;;;;;;4.47;1.77;;;6.80;99.90;;;;;;477238;249;27609;-66